Terminal Aerodrome Forecast
Issued by NWS Memphis, TN

Home | Current Version | Previous Version | Text Only | Print | Product List | Glossary On
Versions: 1 2 3 4 5 6 7 8 9 10 11 12 13 14 15 16 17 18
000
FTUS44 KMEG 241632 AAB
TAFMKL
TAF AMD
KMKL 241632Z 2417/2512 19004KT P6SM VCSH SCT040 BKN250
     FM250000 VRB02KT P6SM VCTS BKN050CB BKN250
     FM250500 00000KT 4SM BR SCT004 SCT250
      TEMPO 2508/2512 1/2SM FG VV003=

USA.gov is the U.S. government's official web portal to all federal, state and local government web resources and services.